Time,TemperatureF,DewpointF,PressureIn,WindDirection,WindDirectionDegrees,WindSpeedMPH,WindSpeedGustMPH,Humidity,HourlyPrecipIn,Conditions,Clouds,dailyrainin,SoftwareType,DateUTC
2013-01-05 00:00:00,60.6,57.4,30.21,NNE,23,0.0,5.5,89,0.00,,,0.02,WUHU216HW,2013-01-05 05:00:00,
2013-01-05 00:01:00,60.6,57.4,30.21,NNE,23,1.3,5.5,89,0.00,,,0.00,WUHU216HW,2013-01-05 05:01:00,
2013-01-05 00:06:00,60.6,57.4,30.21,NNE,23,1.1,3.1,89,0.00,,,0.00,WUHU216HW,2013-01-05 05:06:00,
2013-01-05 00:11:00,60.6,57.4,30.22,NNE,23,2.0,3.3,89,0.00,,,0.00,WUHU216HW,2013-01-05 05:11:00,
2013-01-05 00:16:00,60.6,57.4,30.22,NNE,23,1.3,3.3,89,0.00,,,0.00,WUHU216HW,2013-01-05 05:16:00,
2013-01-05 00:21:00,60.6,57.4,30.22,NNE,23,0.0,2.9,89,0.00,,,0.00,WUHU216HW,2013-01-05 05:21:00,
2013-01-05 00:26:00,60.6,57.4,30.22,NNE,23,0.6,2.9,89,0.00,,,0.00,WUHU216HW,2013-01-05 05:26:00,
2013-01-05 00:31:00,60.6,57.4,30.21,NNE,23,0.0,3.3,89,0.00,,,0.00,WUHU216HW,2013-01-05 05:31:00,
2013-01-05 00:36:00,60.6,57.4,30.21,NNE,23,0.0,3.3,89,0.00,,,0.00,WUHU216HW,2013-01-05 05:36:00,
2013-01-05 00:41:00,60.6,57.7,30.21,NNE,23,1.7,5.3,90,0.00,,,0.00,WUHU216HW,2013-01-05 05:41:00,
2013-01-05 00:46:00,60.6,57.7,30.21,NNE,23,2.2,5.3,90,0.00,,,0.00,WUHU216HW,2013-01-05 05:46:00,
2013-01-05 00:51:00,60.6,57.7,30.22,NNE,23,1.5,2.9,90,0.00,,,0.00,WUHU216HW,2013-01-05 05:51:00,
2013-01-05 00:56:00,60.6,57.7,30.22,NNE,23,1.7,2.9,90,0.00,,,0.00,WUHU216HW,2013-01-05 05:56:00,
2013-01-05 01:01:00,60.6,57.7,30.22,NNE,23,0.6,3.5,90,0.00,,,0.00,WUHU216HW,2013-01-05 06:01:00,
2013-01-05 01:06:00,60.6,57.7,30.22,NNE,23,1.5,3.5,90,0.00,,,0.00,WUHU216HW,2013-01-05 06:06:00,
2013-01-05 01:11:00,60.6,57.7,30.22,NNE,23,3.8,3.8,90,0.00,,,0.00,WUHU216HW,2013-01-05 06:11:00,
2013-01-05 01:16:00,60.6,57.7,30.22,NNE,23,1.3,3.8,90,0.00,,,0.00,WUHU216HW,2013-01-05 06:16:00,
2013-01-05 01:21:00,60.6,57.7,30.21,NNE,23,1.1,4.2,90,0.00,,,0.00,WUHU216HW,2013-01-05 06:21:00,
2013-01-05 01:26:00,60.6,57.7,30.21,NNE,23,3.5,6.7,90,0.00,,,0.00,WUHU216HW,2013-01-05 06:26:00,
2013-01-05 01:31:00,60.6,57.7,30.22,NNE,23,0.6,6.7,90,0.00,,,0.00,WUHU216HW,2013-01-05 06:31:00,
2013-01-05 01:36:00,60.6,57.7,30.21,NNE,23,2.0,5.5,90,0.00,,,0.00,WUHU216HW,2013-01-05 06:36:00,
2013-01-05 01:41:00,60.6,57.7,30.21,NNE,23,0.0,4.4,90,0.00,,,0.00,WUHU216HW,2013-01-05 06:41:00,
2013-01-05 01:46:00,60.6,57.7,30.21,NNE,23,3.5,4.4,90,0.00,,,0.00,WUHU216HW,2013-01-05 06:46:00,
2013-01-05 01:51:00,60.6,57.7,30.21,NE,45,4.9,4.9,90,0.00,,,0.00,WUHU216HW,2013-01-05 06:51:00,
2013-01-05 01:56:00,60.6,57.7,30.21,NE,45,0.0,5.8,90,0.00,,,0.00,WUHU216HW,2013-01-05 06:56:00,
2013-01-05 02:01:00,60.6,57.7,30.21,NE,45,0.8,5.8,90,0.00,,,0.00,WUHU216HW,2013-01-05 07:01:00,
2013-01-05 02:06:00,60.6,57.7,30.21,NE,45,3.1,4.4,90,0.00,,,0.00,WUHU216HW,2013-01-05 07:06:00,
2013-01-05 02:11:00,60.4,57.5,30.21,NNE,23,2.0,3.1,90,0.00,,,0.00,WUHU216HW,2013-01-05 07:11:00,
2013-01-05 02:16:00,60.4,57.5,30.21,NE,45,6.4,6.4,90,0.00,,,0.00,WUHU216HW,2013-01-05 07:16:00,
2013-01-05 02:21:00,60.0,57.2,30.20,NE,45,4.0,6.4,90,0.00,,,0.00,WUHU216HW,2013-01-05 07:21:00,
2013-01-05 02:26:00,60.0,57.2,30.21,NE,45,1.7,6.0,90,0.00,,,0.00,WUHU216HW,2013-01-05 07:26:00,
2013-01-05 02:31:00,60.0,57.2,30.21,NE,45,2.2,5.5,90,0.00,,,0.00,WUHU216HW,2013-01-05 07:31:00,
2013-01-05 02:36:00,60.0,57.2,30.21,North,0,0.6,2.6,90,0.00,,,0.00,WUHU216HW,2013-01-05 07:36:00,
2013-01-05 02:41:00,60.0,57.2,30.21,NE,45,5.5,6.0,90,0.00,,,0.00,WUHU216HW,2013-01-05 07:41:00,
2013-01-05 02:46:00,59.9,57.0,30.20,NE,45,2.9,6.9,90,0.00,,,0.00,WUHU216HW,2013-01-05 07:46:00,
2013-01-05 02:51:00,59.9,57.0,30.21,NE,45,3.8,6.9,90,0.00,,,0.00,WUHU216HW,2013-01-05 07:51:00,
2013-01-05 02:56:00,59.9,56.6,30.21,NE,45,1.7,5.3,89,0.00,,,0.00,WUHU216HW,2013-01-05 07:56:00,
2013-01-05 03:01:00,59.9,57.0,30.21,NE,45,2.9,3.8,90,0.00,,,0.00,WUHU216HW,2013-01-05 08:01:00,
2013-01-05 03:06:00,59.9,57.0,30.21,NE,45,3.5,5.3,90,0.00,,,0.00,WUHU216HW,2013-01-05 08:06:00,
2013-01-05 03:11:00,59.7,56.8,30.20,NE,45,2.9,5.3,90,0.00,,,0.00,WUHU216HW,2013-01-05 08:11:00,
2013-01-05 03:16:00,59.7,56.8,30.20,NE,45,2.2,3.3,90,0.00,,,0.00,WUHU216HW,2013-01-05 08:16:00,
2013-01-05 03:21:00,59.7,56.5,30.20,NE,45,2.9,4.2,89,0.00,,,0.00,WUHU216HW,2013-01-05 08:21:00,
2013-01-05 03:26:00,59.5,56.3,30.20,NE,45,3.5,5.3,89,0.00,,,0.00,WUHU216HW,2013-01-05 08:26:00,
2013-01-05 03:31:00,59.5,56.3,30.20,NE,45,1.1,6.9,89,0.00,,,0.00,WUHU216HW,2013-01-05 08:31:00,
2013-01-05 03:36:00,59.5,56.3,30.20,NE,45,2.2,6.9,89,0.00,,,0.00,WUHU216HW,2013-01-05 08:36:00,
2013-01-05 03:41:00,59.5,56.3,30.20,NE,45,0.8,4.4,89,0.00,,,0.00,WUHU216HW,2013-01-05 08:41:00,
2013-01-05 03:46:00,59.5,56.3,30.20,NE,45,2.9,6.4,89,0.00,,,0.00,WUHU216HW,2013-01-05 08:46:00,
2013-01-05 03:51:00,59.5,56.3,30.20,NE,45,3.3,6.4,89,0.00,,,0.00,WUHU216HW,2013-01-05 08:51:00,
2013-01-05 03:56:00,59.5,56.3,30.20,NE,45,5.5,5.5,89,0.00,,,0.00,WUHU216HW,2013-01-05 08:56:00,
2013-01-05 04:01:00,59.5,56.3,30.20,NE,45,0.0,5.5,89,0.00,,,0.00,WUHU216HW,2013-01-05 09:01:00,
2013-01-05 04:06:00,59.5,56.3,30.20,NE,45,4.4,4.9,89,0.00,,,0.00,WUHU216HW,2013-01-05 09:06:00,
2013-01-05 04:11:00,59.5,56.0,30.20,NE,45,3.5,4.9,88,0.00,,,0.00,WUHU216HW,2013-01-05 09:11:00,
2013-01-05 04:16:00,59.5,56.0,30.20,NE,45,1.7,3.8,88,0.00,,,0.00,WUHU216HW,2013-01-05 09:16:00,
2013-01-05 04:21:00,59.5,56.0,30.19,NE,45,0.6,3.8,88,0.00,,,0.00,WUHU216HW,2013-01-05 09:21:00,
2013-01-05 04:26:00,59.5,56.0,30.20,NE,45,3.3,3.3,88,0.00,,,0.00,WUHU216HW,2013-01-05 09:26:00,
2013-01-05 04:31:00,59.3,55.8,30.20,NE,45,0.4,3.3,88,0.00,,,0.00,WUHU216HW,2013-01-05 09:31:00,
2013-01-05 04:36:00,59.1,55.6,30.20,NE,45,0.0,4.0,88,0.00,,,0.00,WUHU216HW,2013-01-05 09:36:00,
2013-01-05 04:41:00,59.1,55.6,30.20,NE,45,2.4,4.0,88,0.00,,,0.00,WUHU216HW,2013-01-05 09:41:00,
2013-01-05 04:46:00,58.8,55.2,30.20,NE,45,1.5,4.0,88,0.00,,,0.00,WUHU216HW,2013-01-05 09:46:00,
2013-01-05 04:51:00,58.8,55.2,30.20,NE,45,1.1,2.9,88,0.00,,,0.00,WUHU216HW,2013-01-05 09:51:00,
2013-01-05 04:56:00,58.8,55.2,30.20,NE,45,1.7,3.8,88,0.00,,,0.00,WUHU216HW,2013-01-05 09:56:00,
2013-01-05 05:01:00,58.8,55.2,30.21,NE,45,2.6,3.8,88,0.00,,,0.00,WUHU216HW,2013-01-05 10:01:00,
2013-01-05 05:06:00,58.8,55.2,30.20,NE,45,4.2,5.3,88,0.00,,,0.00,WUHU216HW,2013-01-05 10:06:00,
2013-01-05 05:11:00,58.8,55.2,30.20,NE,45,0.2,5.3,88,0.00,,,0.00,WUHU216HW,2013-01-05 10:11:00,
2013-01-05 05:16:00,58.8,54.9,30.21,NE,45,1.7,3.5,87,0.00,,,0.00,WUHU216HW,2013-01-05 10:16:00,
2013-01-05 05:21:00,58.8,54.9,30.21,NE,45,2.0,2.4,87,0.00,,,0.00,WUHU216HW,2013-01-05 10:21:00,
2013-01-05 05:26:00,58.6,54.7,30.21,NE,45,2.0,2.0,87,0.00,,,0.00,WUHU216HW,2013-01-05 10:26:00,
2013-01-05 05:31:00,58.6,54.7,30.21,NE,45,2.0,3.5,87,0.00,,,0.00,WUHU216HW,2013-01-05 10:31:00,
2013-01-05 05:36:00,58.6,54.7,30.21,NE,45,2.6,3.5,87,0.00,,,0.00,WUHU216HW,2013-01-05 10:36:00,
2013-01-05 05:41:00,58.6,54.7,30.21,NE,45,1.1,4.6,87,0.00,,,0.00,WUHU216HW,2013-01-05 10:41:00,
2013-01-05 05:46:00,58.6,54.7,30.21,NE,45,0.0,4.6,87,0.00,,,0.00,WUHU216HW,2013-01-05 10:46:00,
2013-01-05 05:51:00,58.6,54.7,30.21,NE,45,1.5,2.6,87,0.00,,,0.00,WUHU216HW,2013-01-05 10:51:00,
2013-01-05 05:56:00,58.6,54.7,30.21,NE,45,2.4,6.9,87,0.00,,,0.00,WUHU216HW,2013-01-05 10:56:00,
2013-01-05 06:01:00,58.6,54.7,30.21,NE,45,3.8,6.9,87,0.00,,,0.00,WUHU216HW,2013-01-05 11:01:00,
2013-01-05 06:06:00,58.6,54.7,30.21,NE,45,0.8,3.8,87,0.00,,,0.00,WUHU216HW,2013-01-05 11:06:00,
2013-01-05 06:11:00,58.4,54.2,30.21,NE,45,0.0,3.8,86,0.00,,,0.00,WUHU216HW,2013-01-05 11:11:00,
2013-01-05 06:16:00,58.4,54.2,30.21,NE,45,0.0,2.0,86,0.00,,,0.00,WUHU216HW,2013-01-05 11:16:00,
2013-01-05 06:21:00,58.2,54.1,30.21,NE,45,0.8,4.6,86,0.00,,,0.00,WUHU216HW,2013-01-05 11:21:00,
2013-01-05 06:26:00,58.2,54.4,30.22,NE,45,1.5,4.6,87,0.00,,,0.00,WUHU216HW,2013-01-05 11:26:00,
2013-01-05 06:31:00,58.2,54.4,30.22,NE,45,2.6,3.5,87,0.00,,,0.00,WUHU216HW,2013-01-05 11:31:00,
2013-01-05 06:36:00,58.2,54.1,30.22,NE,45,2.6,3.8,86,0.00,,,0.00,WUHU216HW,2013-01-05 11:36:00,
2013-01-05 06:41:00,58.2,53.9,30.22,NE,45,0.0,4.4,86,0.00,,,0.00,WUHU216HW,2013-01-05 11:41:00,
2013-01-05 06:46:00,58.2,54.1,30.22,NE,45,4.6,4.6,86,0.00,,,0.00,WUHU216HW,2013-01-05 11:46:00,
2013-01-05 06:51:00,58.2,54.1,30.22,NE,45,0.4,4.6,86,0.00,,,0.00,WUHU216HW,2013-01-05 11:51:00,
2013-01-05 06:56:00,58.1,53.9,30.22,NE,45,3.3,5.1,86,0.00,,,0.00,WUHU216HW,2013-01-05 11:56:00,
2013-01-05 07:01:00,58.1,53.9,30.22,NE,45,4.6,5.8,86,0.00,,,0.00,WUHU216HW,2013-01-05 12:01:00,
2013-01-05 07:06:00,58.1,53.9,30.22,NE,45,4.4,5.8,86,0.00,,,0.00,WUHU216HW,2013-01-05 12:06:00,
2013-01-05 07:11:00,57.9,53.7,30.22,NE,45,3.3,6.0,86,0.00,,,0.00,WUHU216HW,2013-01-05 12:11:00,
2013-01-05 07:16:00,57.9,53.7,30.22,NE,45,2.4,6.0,86,0.00,,,0.00,WUHU216HW,2013-01-05 12:16:00,
2013-01-05 07:21:00,57.9,53.7,30.22,NE,45,2.2,2.6,86,0.00,,,0.00,WUHU216HW,2013-01-05 12:21:00,
2013-01-05 07:26:00,57.9,53.9,30.22,NE,45,5.5,5.5,86,0.00,,,0.00,WUHU216HW,2013-01-05 12:26:00,
2013-01-05 07:31:00,58.1,53.9,30.22,NE,45,7.6,7.6,86,0.00,,,0.00,WUHU216HW,2013-01-05 12:31:00,
2013-01-05 07:36:00,58.1,53.9,30.22,NE,45,1.3,7.6,86,0.00,,,0.00,WUHU216HW,2013-01-05 12:36:00,
2013-01-05 07:41:00,58.1,53.9,30.23,NE,45,2.0,3.1,86,0.00,,,0.00,WUHU216HW,2013-01-05 12:41:00,
2013-01-05 07:46:00,58.1,53.9,30.23,NE,45,2.4,3.8,86,0.00,,,0.00,WUHU216HW,2013-01-05 12:46:00,
2013-01-05 07:51:00,58.1,53.9,30.23,NE,45,1.5,4.0,86,0.00,,,0.00,WUHU216HW,2013-01-05 12:51:00,
2013-01-05 07:56:00,58.1,53.9,30.23,NE,45,3.5,4.0,86,0.00,,,0.00,WUHU216HW,2013-01-05 12:56:00,
2013-01-05 08:01:00,58.1,53.9,30.23,NE,45,4.6,5.1,86,0.00,,,0.00,WUHU216HW,2013-01-05 13:01:00,
2013-01-05 08:06:00,58.2,54.1,30.23,NE,45,2.0,5.1,86,0.00,,,0.00,WUHU216HW,2013-01-05 13:06:00,
2013-01-05 08:11:00,58.4,54.2,30.23,NE,45,3.5,4.2,86,0.00,,,0.00,WUHU216HW,2013-01-05 13:11:00,
2013-01-05 08:16:00,58.4,54.2,30.23,NE,45,1.5,3.5,86,0.00,,,0.00,WUHU216HW,2013-01-05 13:16:00,
2013-01-05 08:21:00,58.6,54.4,30.23,NE,45,0.0,4.6,86,0.00,,,0.00,WUHU216HW,2013-01-05 13:21:00,
2013-01-05 08:26:00,58.8,54.6,30.23,NE,45,0.8,4.6,86,0.00,,,0.00,WUHU216HW,2013-01-05 13:26:00,
2013-01-05 08:31:00,58.8,54.6,30.23,NE,45,1.3,4.0,86,0.00,,,0.00,WUHU216HW,2013-01-05 13:31:00,
2013-01-05 08:36:00,59.0,54.8,30.24,NE,45,4.9,4.9,86,0.00,,,0.00,WUHU216HW,2013-01-05 13:36:00,
2013-01-05 08:41:00,59.5,55.3,30.24,NE,45,2.2,6.2,86,0.00,,,0.00,WUHU216HW,2013-01-05 13:41:00,
2013-01-05 08:46:00,59.7,55.5,30.24,NE,45,1.7,6.2,86,0.00,,,0.00,WUHU216HW,2013-01-05 13:46:00,
2013-01-05 08:51:00,59.9,55.7,30.24,NE,45,3.5,5.5,86,0.00,,,0.00,WUHU216HW,2013-01-05 13:51:00,
2013-01-05 08:56:00,60.0,55.5,30.24,NE,45,4.4,5.5,85,0.00,,,0.00,WUHU216HW,2013-01-05 13:56:00,
2013-01-05 09:01:00,60.0,55.2,30.24,NE,45,1.5,5.5,84,0.00,,,0.00,WUHU216HW,2013-01-05 14:01:00,
2013-01-05 09:06:00,60.4,55.6,30.24,NE,45,3.3,6.9,84,0.00,,,0.00,WUHU216HW,2013-01-05 14:06:00,
2013-01-05 09:11:00,60.6,55.7,30.23,NE,45,2.6,6.9,84,0.00,,,0.00,WUHU216HW,2013-01-05 14:11:00,
2013-01-05 09:16:00,60.8,55.9,30.24,NE,45,7.8,7.8,84,0.00,,,0.00,WUHU216HW,2013-01-05 14:16:00,
2013-01-05 09:21:00,60.9,55.9,30.24,North,0,0.0,7.8,83,0.00,,,0.00,WUHU216HW,2013-01-05 14:21:00,
2013-01-05 09:26:00,61.3,56.1,30.24,NNE,23,3.3,4.0,83,0.00,,,0.00,WUHU216HW,2013-01-05 14:26:00,
2013-01-05 09:31:00,61.5,55.9,30.24,NE,45,2.9,5.1,82,0.00,,,0.00,WUHU216HW,2013-01-05 14:31:00,
2013-01-05 09:36:00,61.8,56.3,30.25,NE,45,3.8,7.8,82,0.00,,,0.00,WUHU216HW,2013-01-05 14:36:00,
2013-01-05 09:41:00,62.2,56.6,30.25,ENE,68,6.0,7.8,82,0.00,,,0.00,WUHU216HW,2013-01-05 14:41:00,
2013-01-05 09:46:00,62.4,56.8,30.24,NE,45,2.6,6.9,82,0.00,,,0.00,WUHU216HW,2013-01-05 14:46:00,
2013-01-05 09:51:00,62.7,57.1,30.25,NE,45,5.1,8.0,82,0.00,,,0.00,WUHU216HW,2013-01-05 14:51:00,
2013-01-05 09:56:00,63.3,57.5,30.25,NE,45,4.4,8.0,82,0.00,,,0.00,WUHU216HW,2013-01-05 14:56:00,
2013-01-05 10:01:00,63.5,57.5,30.25,NE,45,5.8,8.0,81,0.00,,,0.00,WUHU216HW,2013-01-05 15:01:00,
2013-01-05 10:06:00,63.6,57.7,30.24,ENE,68,2.9,8.0,81,0.00,,,0.00,WUHU216HW,2013-01-05 15:06:00,
2013-01-05 10:11:00,64.2,58.2,30.24,NNE,23,2.6,4.2,81,0.00,,,0.00,WUHU216HW,2013-01-05 15:11:00,
2013-01-05 10:16:00,64.5,58.6,30.24,NNE,23,4.0,4.6,81,0.00,,,0.00,WUHU216HW,2013-01-05 15:16:00,
2013-01-05 10:21:00,64.7,58.4,30.24,NNE,23,0.0,5.1,80,0.00,,,0.00,WUHU216HW,2013-01-05 15:21:00,
2013-01-05 10:26:00,65.1,58.8,30.24,NE,45,1.5,9.1,80,0.00,,,0.00,WUHU216HW,2013-01-05 15:26:00,
2013-01-05 10:31:00,65.4,59.1,30.24,NE,45,6.0,9.1,80,0.00,,,0.00,WUHU216HW,2013-01-05 15:31:00,
2013-01-05 10:36:00,65.8,59.1,30.24,North,0,6.2,6.2,79,0.00,,,0.00,WUHU216HW,2013-01-05 15:36:00,
2013-01-05 10:41:00,66.0,59.3,30.24,ENE,68,5.3,6.9,79,0.00,,,0.00,WUHU216HW,2013-01-05 15:41:00,
2013-01-05 10:46:00,66.0,58.9,30.24,NE,45,4.0,6.9,78,0.00,,,0.00,WUHU216HW,2013-01-05 15:46:00,
2013-01-05 10:51:00,66.3,59.3,30.24,ENE,68,4.0,4.9,78,0.00,,,0.00,WUHU216HW,2013-01-05 15:51:00,
2013-01-05 10:56:00,66.9,60.2,30.24,North,0,5.1,6.0,79,0.00,,,0.00,WUHU216HW,2013-01-05 15:56:00,
2013-01-05 11:02:00,67.2,60.2,30.23,NNE,23,5.8,6.0,78,0.00,,,0.00,WUHU216HW,2013-01-05 16:02:00,
2013-01-05 11:07:00,67.6,60.7,30.22,NNE,23,4.6,5.8,78,0.00,,,0.00,WUHU216HW,2013-01-05 16:07:00,
2013-01-05 11:12:00,68.1,61.1,30.22,NE,45,2.6,6.2,78,0.00,,,0.00,WUHU216HW,2013-01-05 16:12:00,
2013-01-05 11:17:00,68.5,61.4,30.22,NE,45,2.6,6.2,78,0.00,,,0.00,WUHU216HW,2013-01-05 16:17:00,
2013-01-05 11:22:00,68.7,60.8,30.22,NNE,23,0.0,5.3,76,0.00,,,0.00,WUHU216HW,2013-01-05 16:22:00,
2013-01-05 11:27:00,69.2,61.5,30.22,ENE,68,5.3,5.3,77,0.00,,,0.00,WUHU216HW,2013-01-05 16:27:00,
2013-01-05 11:32:00,69.6,61.6,30.22,NNE,23,5.3,5.3,76,0.00,,,0.00,WUHU216HW,2013-01-05 16:32:00,
2013-01-05 11:37:00,69.9,61.6,30.22,North,0,2.0,5.3,75,0.00,,,0.00,WUHU216HW,2013-01-05 16:37:00,
2013-01-05 11:42:00,69.9,61.2,30.22,North,0,1.1,4.6,74,0.00,,,0.00,WUHU216HW,2013-01-05 16:42:00,
2013-01-05 11:47:00,70.5,62.5,30.21,NNW,338,5.1,8.9,76,0.00,,,0.00,WUHU216HW,2013-01-05 16:47:00,
2013-01-05 11:52:00,70.8,62.5,30.21,ENE,68,6.4,8.9,75,0.00,,,0.00,WUHU216HW,2013-01-05 16:52:00,
2013-01-05 11:57:00,71.4,63.0,30.21,ENE,68,3.5,6.4,75,0.00,,,0.00,WUHU216HW,2013-01-05 16:57:00,
2013-01-05 12:02:00,71.7,63.0,30.20,ENE,68,3.1,5.1,74,0.00,,,0.00,WUHU216HW,2013-01-05 17:02:00,
2013-01-05 12:07:00,72.3,63.9,30.20,ENE,68,6.2,6.2,75,0.00,,,0.00,WUHU216HW,2013-01-05 17:07:00,
2013-01-05 12:12:00,72.6,63.9,30.20,ENE,68,3.8,7.1,74,0.00,,,0.00,WUHU216HW,2013-01-05 17:12:00,
2013-01-05 12:17:00,73.2,64.4,30.20,ENE,68,4.0,7.1,74,0.00,,,0.00,WUHU216HW,2013-01-05 17:17:00,
2013-01-05 12:22:00,73.5,64.8,30.20,NE,45,2.6,4.6,74,0.00,,,0.00,WUHU216HW,2013-01-05 17:22:00,
2013-01-05 12:27:00,74.1,64.9,30.20,NE,45,2.9,4.6,73,0.00,,,0.00,WUHU216HW,2013-01-05 17:27:00,
2013-01-05 12:32:00,74.1,64.5,30.19,ENE,68,2.4,4.6,72,0.00,,,0.00,WUHU216HW,2013-01-05 17:32:00,
2013-01-05 12:37:00,74.1,63.6,30.19,NNE,23,1.1,4.2,71,0.00,,,0.00,WUHU216HW,2013-01-05 17:37:00,
2013-01-05 12:42:00,74.1,63.7,30.18,NE,45,3.1,4.6,70,0.00,,,0.00,WUHU216HW,2013-01-05 17:42:00,
2013-01-05 12:47:00,74.3,64.3,30.18,NNE,23,2.0,7.8,71,0.00,,,0.00,WUHU216HW,2013-01-05 17:47:00,
2013-01-05 12:52:00,74.4,64.4,30.17,NE,45,2.6,7.8,71,0.00,,,0.00,WUHU216HW,2013-01-05 17:52:00,
2013-01-05 12:57:00,74.8,64.8,30.17,East,90,2.6,5.3,71,0.00,,,0.00,WUHU216HW,2013-01-05 17:57:00,
2013-01-05 13:02:00,75.2,64.7,30.17,NE,45,2.6,4.2,70,0.00,,,0.00,WUHU216HW,2013-01-05 18:02:00,
2013-01-05 13:07:00,75.5,65.1,30.17,ENE,68,4.9,4.9,70,0.00,,,0.00,WUHU216HW,2013-01-05 18:07:00,
2013-01-05 13:12:00,75.7,65.3,30.17,South,180,1.3,4.9,70,0.00,,,0.00,WUHU216HW,2013-01-05 18:12:00,
2013-01-05 13:17:00,76.1,65.6,30.17,East,90,0.4,4.9,70,0.00,,,0.00,WUHU216HW,2013-01-05 18:17:00,
2013-01-05 13:22:00,76.2,65.3,30.17,NE,45,0.2,4.9,69,0.00,,,0.00,WUHU216HW,2013-01-05 18:22:00,
2013-01-05 13:27:00,76.8,66.3,30.16,SE,135,2.4,4.0,70,0.00,,,0.00,WUHU216HW,2013-01-05 18:27:00,
2013-01-05 13:32:00,77.0,66.1,30.15,SE,135,4.6,4.6,69,0.00,,,0.00,WUHU216HW,2013-01-05 18:32:00,
2013-01-05 13:37:00,77.5,66.5,30.15,East,90,0.8,4.6,69,0.00,,,0.00,WUHU216HW,2013-01-05 18:37:00,
2013-01-05 13:42:00,77.9,66.9,30.15,NE,45,6.0,6.0,69,0.00,,,0.00,WUHU216HW,2013-01-05 18:42:00,
2013-01-05 13:47:00,77.9,66.4,30.15,ENE,68,0.6,6.0,68,0.00,,,0.00,WUHU216HW,2013-01-05 18:47:00,
2013-01-05 13:52:00,78.4,66.9,30.15,ENE,68,2.9,4.2,68,0.00,,,0.00,WUHU216HW,2013-01-05 18:52:00,
2013-01-05 13:57:00,78.6,66.7,30.15,NNE,23,3.1,5.3,67,0.00,,,0.00,WUHU216HW,2013-01-05 18:57:00,
2013-01-05 14:02:00,78.6,66.2,30.15,NE,45,6.0,6.0,66,0.00,,,0.00,WUHU216HW,2013-01-05 19:02:00,
2013-01-05 14:07:00,78.4,65.8,30.15,NE,45,3.5,6.0,65,0.00,,,0.00,WUHU216HW,2013-01-05 19:07:00,
2013-01-05 14:12:00,78.0,65.3,30.15,NE,45,0.6,5.5,65,0.00,,,0.00,WUHU216HW,2013-01-05 19:12:00,
2013-01-05 14:17:00,78.0,65.7,30.15,NE,45,4.0,4.0,66,0.00,,,0.00,WUHU216HW,2013-01-05 19:17:00,
2013-01-05 14:22:00,78.4,65.9,30.15,ENE,68,1.3,4.0,66,0.00,,,0.00,WUHU216HW,2013-01-05 19:22:00,
2013-01-05 14:27:00,78.0,65.7,30.15,East,90,1.5,2.0,66,0.00,,,0.00,WUHU216HW,2013-01-05 19:27:00,
2013-01-05 14:32:00,77.9,65.6,30.15,ENE,68,2.2,3.5,66,0.00,,,0.00,WUHU216HW,2013-01-05 19:32:00,
2013-01-05 14:37:00,78.0,65.7,30.15,East,90,0.0,3.5,66,0.00,,,0.00,WUHU216HW,2013-01-05 19:37:00,
2013-01-05 14:42:00,77.9,65.6,30.14,ENE,68,4.6,4.6,66,0.00,,,0.00,WUHU216HW,2013-01-05 19:42:00,
2013-01-05 14:47:00,77.5,65.6,30.15,ENE,68,3.1,6.7,67,0.00,,,0.00,WUHU216HW,2013-01-05 19:47:00,
2013-01-05 14:52:00,77.7,65.8,30.15,East,90,3.5,6.7,67,0.00,,,0.00,WUHU216HW,2013-01-05 19:52:00,
2013-01-05 14:57:00,77.5,65.8,30.15,ENE,68,2.2,4.4,67,0.00,,,0.00,WUHU216HW,2013-01-05 19:57:00,
2013-01-05 15:02:00,77.5,65.6,30.15,NE,45,0.8,4.9,67,0.00,,,0.00,WUHU216HW,2013-01-05 20:02:00,
2013-01-05 15:07:00,77.5,65.6,30.15,ENE,68,2.4,4.9,67,0.00,,,0.00,WUHU216HW,2013-01-05 20:07:00,
2013-01-05 15:12:00,77.3,65.9,30.15,ENE,68,2.4,2.9,68,0.00,,,0.00,WUHU216HW,2013-01-05 20:12:00,
2013-01-05 15:17:00,77.3,65.9,30.15,ENE,68,0.0,2.9,68,0.00,,,0.00,WUHU216HW,2013-01-05 20:17:00,
2013-01-05 15:22:00,77.1,65.8,30.15,ENE,68,2.9,3.8,68,0.00,,,0.00,WUHU216HW,2013-01-05 20:22:00,
2013-01-05 15:27:00,77.1,65.6,30.15,East,90,2.9,3.8,68,0.00,,,0.00,WUHU216HW,2013-01-05 20:27:00,
2013-01-05 15:32:00,76.8,65.4,30.15,East,90,1.5,4.0,68,0.00,,,0.00,WUHU216HW,2013-01-05 20:32:00,
2013-01-05 15:37:00,76.6,65.3,30.15,East,90,2.0,4.9,68,0.00,,,0.00,WUHU216HW,2013-01-05 20:37:00,
2013-01-05 15:42:00,76.6,65.3,30.15,ENE,68,2.2,4.9,68,0.00,,,0.00,WUHU216HW,2013-01-05 20:42:00,
2013-01-05 15:47:00,76.4,65.1,30.15,ENE,68,3.3,4.9,68,0.00,,,0.00,WUHU216HW,2013-01-05 20:47:00,
2013-01-05 15:52:00,76.2,65.3,30.15,ENE,68,2.6,3.3,69,0.00,,,0.00,WUHU216HW,2013-01-05 20:52:00,
2013-01-05 15:57:00,76.2,65.3,30.15,ENE,68,2.4,2.6,69,0.00,,,0.00,WUHU216HW,2013-01-05 20:57:00,
2013-01-05 16:02:00,76.1,65.2,30.15,ENE,68,0.0,2.4,69,0.00,,,0.00,WUHU216HW,2013-01-05 21:02:00,
2013-01-05 16:07:00,75.9,65.0,30.15,ENE,68,0.4,2.4,69,0.00,,,0.00,WUHU216HW,2013-01-05 21:07:00,
2013-01-05 16:12:00,75.7,65.3,30.15,ENE,68,0.0,1.3,70,0.00,,,0.00,WUHU216HW,2013-01-05 21:12:00,
2013-01-05 16:17:00,75.5,65.1,30.15,ENE,68,0.0,1.5,70,0.00,,,0.00,WUHU216HW,2013-01-05 21:17:00,
2013-01-05 16:22:00,75.3,64.9,30.15,ENE,68,0.0,1.5,70,0.00,,,0.00,WUHU216HW,2013-01-05 21:22:00,
2013-01-05 16:27:00,75.0,64.5,30.15,ENE,68,0.0,1.1,70,0.00,,,0.00,WUHU216HW,2013-01-05 21:27:00,
2013-01-05 16:32:00,75.0,64.9,30.16,ENE,68,0.0,1.1,71,0.00,,,0.00,WUHU216HW,2013-01-05 21:32:00,
2013-01-05 16:37:00,74.8,64.8,30.15,ENE,68,0.0,1.7,71,0.00,,,0.00,WUHU216HW,2013-01-05 21:37:00,
2013-01-05 16:42:00,74.8,64.8,30.15,ENE,68,0.0,1.7,71,0.00,,,0.00,WUHU216HW,2013-01-05 21:42:00,
2013-01-05 16:47:00,74.8,64.8,30.16,ENE,68,0.0,0.8,71,0.00,,,0.00,WUHU216HW,2013-01-05 21:47:00,
2013-01-05 16:52:00,74.8,64.8,30.16,ENE,68,0.0,0.0,71,0.00,,,0.00,WUHU216HW,2013-01-05 21:52:00,
2013-01-05 16:57:00,74.4,64.8,30.16,ENE,68,0.0,0.0,72,0.00,,,0.00,WUHU216HW,2013-01-05 21:57:00,
2013-01-05 17:02:00,74.4,64.8,30.16,ENE,68,0.0,0.0,72,0.00,,,0.00,WUHU216HW,2013-01-05 22:02:00,
2013-01-05 17:07:00,74.3,64.7,30.16,ENE,68,0.8,0.8,72,0.00,,,0.00,WUHU216HW,2013-01-05 22:07:00,
2013-01-05 17:12:00,74.1,64.5,30.16,ENE,68,0.0,0.8,73,0.00,,,0.00,WUHU216HW,2013-01-05 22:12:00,
2013-01-05 17:17:00,74.1,64.9,30.16,ENE,68,2.0,2.0,73,0.00,,,0.00,WUHU216HW,2013-01-05 22:17:00,
2013-01-05 17:22:00,74.1,64.9,30.16,ENE,68,0.0,2.0,73,0.00,,,0.00,WUHU216HW,2013-01-05 22:22:00,
2013-01-05 17:27:00,73.9,64.7,30.16,ENE,68,0.4,1.5,73,0.00,,,0.00,WUHU216HW,2013-01-05 22:27:00,
2013-01-05 17:32:00,73.9,64.7,30.16,ENE,68,0.0,1.3,73,0.00,,,0.00,WUHU216HW,2013-01-05 22:32:00,
2013-01-05 17:37:00,73.9,64.7,30.16,ENE,68,1.3,1.3,73,0.00,,,0.00,WUHU216HW,2013-01-05 22:37:00,
2013-01-05 17:42:00,73.7,64.5,30.17,ENE,68,2.6,4.2,73,0.00,,,0.00,WUHU216HW,2013-01-05 22:42:00,
2013-01-05 17:47:00,73.5,64.8,30.17,ENE,68,1.1,4.2,74,0.00,,,0.00,WUHU216HW,2013-01-05 22:47:00,
2013-01-05 17:52:00,73.4,64.6,30.17,ENE,68,0.2,2.6,74,0.00,,,0.00,WUHU216HW,2013-01-05 22:52:00,
2013-01-05 17:57:00,73.2,64.4,30.17,ENE,68,2.0,2.9,74,0.00,,,0.00,WUHU216HW,2013-01-05 22:57:00,
2013-01-05 18:02:00,73.2,64.8,30.17,ENE,68,1.7,2.9,75,0.00,,,0.00,WUHU216HW,2013-01-05 23:02:00,
2013-01-05 18:07:00,73.0,64.6,30.17,ENE,68,1.3,2.6,75,0.00,,,0.00,WUHU216HW,2013-01-05 23:07:00,
2013-01-05 18:12:00,73.0,64.6,30.17,ENE,68,1.1,2.6,75,0.00,,,0.00,WUHU216HW,2013-01-05 23:12:00,
2013-01-05 18:17:00,72.6,64.6,30.17,ENE,68,0.2,2.2,76,0.00,,,0.00,WUHU216HW,2013-01-05 23:17:00,
2013-01-05 18:22:00,72.6,64.6,30.17,ENE,68,2.0,2.0,76,0.00,,,0.00,WUHU216HW,2013-01-05 23:22:00,
2013-01-05 18:27:00,72.5,64.5,30.17,ENE,68,1.3,2.0,76,0.00,,,0.00,WUHU216HW,2013-01-05 23:27:00,
2013-01-05 18:32:00,72.5,64.3,30.18,ENE,68,4.6,4.6,76,0.00,,,0.00,WUHU216HW,2013-01-05 23:32:00,
2013-01-05 18:37:00,72.3,64.3,30.18,ENE,68,2.6,4.6,76,0.00,,,0.00,WUHU216HW,2013-01-05 23:37:00,
2013-01-05 18:42:00,72.3,64.3,30.18,ENE,68,0.6,4.0,76,0.00,,,0.00,WUHU216HW,2013-01-05 23:42:00,
2013-01-05 18:47:00,72.3,64.3,30.18,ENE,68,1.5,4.0,76,0.00,,,0.00,WUHU216HW,2013-01-05 23:47:00,
2013-01-05 18:52:00,72.3,64.3,30.18,ENE,68,1.3,2.4,76,0.00,,,0.00,WUHU216HW,2013-01-05 23:52:00,
2013-01-05 18:57:00,72.1,64.1,30.18,ENE,68,1.3,1.5,76,0.00,,,0.00,WUHU216HW,2013-01-05 23:57:00,
2013-01-05 19:02:00,72.1,64.5,30.19,ENE,68,0.8,4.2,77,0.00,,,0.00,WUHU216HW,2013-01-06 00:02:00,
2013-01-05 19:07:00,72.1,64.5,30.19,ENE,68,1.5,4.2,77,0.00,,,0.00,WUHU216HW,2013-01-06 00:07:00,
2013-01-05 19:12:00,71.9,64.3,30.19,ENE,68,2.4,3.3,77,0.00,,,0.00,WUHU216HW,2013-01-06 00:12:00,
2013-01-05 19:17:00,71.7,64.1,30.19,ENE,68,4.2,4.2,77,0.00,,,0.00,WUHU216HW,2013-01-06 00:17:00,
2013-01-05 19:22:00,71.7,64.5,30.19,ENE,68,2.4,4.2,78,0.00,,,0.00,WUHU216HW,2013-01-06 00:22:00,
2013-01-05 19:27:00,71.6,64.3,30.19,ENE,68,3.1,4.2,78,0.00,,,0.00,WUHU216HW,2013-01-06 00:27:00,
2013-01-05 19:32:00,71.4,64.1,30.19,ENE,68,2.9,4.2,78,0.00,,,0.00,WUHU216HW,2013-01-06 00:32:00,
2013-01-05 19:37:00,71.4,64.1,30.19,ENE,68,2.4,4.2,78,0.00,,,0.00,WUHU216HW,2013-01-06 00:37:00,
2013-01-05 19:42:00,71.2,64.0,30.20,ENE,68,4.0,4.0,78,0.00,,,0.00,WUHU216HW,2013-01-06 00:42:00,
2013-01-05 19:47:00,71.2,64.0,30.20,ENE,68,0.8,4.9,78,0.00,,,0.00,WUHU216HW,2013-01-06 00:47:00,
2013-01-05 19:52:00,71.2,64.3,30.20,ENE,68,0.6,4.9,79,0.00,,,0.00,WUHU216HW,2013-01-06 00:52:00,
2013-01-05 19:57:00,70.8,64.0,30.20,ENE,68,2.0,3.8,79,0.00,,,0.00,WUHU216HW,2013-01-06 00:57:00,
2013-01-05 20:02:00,70.8,64.4,30.20,ENE,68,0.0,3.8,80,0.00,,,0.00,WUHU216HW,2013-01-06 01:02:00,
2013-01-05 20:07:00,70.7,64.0,30.20,ENE,68,3.8,4.0,80,0.00,,,0.00,WUHU216HW,2013-01-06 01:07:00,
2013-01-05 20:12:00,70.5,64.0,30.20,NE,45,3.5,4.6,80,0.00,,,0.00,WUHU216HW,2013-01-06 01:12:00,
2013-01-05 20:17:00,70.3,64.2,30.20,ENE,68,3.1,4.6,81,0.00,,,0.00,WUHU216HW,2013-01-06 01:17:00,
2013-01-05 20:22:00,70.3,64.2,30.20,ENE,68,2.2,4.4,81,0.00,,,0.00,WUHU216HW,2013-01-06 01:22:00,
2013-01-05 20:27:00,70.1,64.2,30.20,NE,45,0.0,5.8,81,0.00,,,0.00,WUHU216HW,2013-01-06 01:27:00,
2013-01-05 20:32:00,70.1,64.0,30.21,NE,45,4.6,5.8,81,0.00,,,0.00,WUHU216HW,2013-01-06 01:32:00,
2013-01-05 20:37:00,70.1,64.0,30.21,NE,45,2.6,4.6,81,0.00,,,0.00,WUHU216HW,2013-01-06 01:37:00,
2013-01-05 20:42:00,69.9,64.1,30.21,NE,45,0.8,4.2,82,0.00,,,0.00,WUHU216HW,2013-01-06 01:42:00,
2013-01-05 20:47:00,69.9,64.1,30.20,NE,45,4.6,4.6,82,0.00,,,0.00,WUHU216HW,2013-01-06 01:47:00,
2013-01-05 20:52:00,69.8,64.0,30.20,NE,45,2.6,4.6,82,0.00,,,0.00,WUHU216HW,2013-01-06 01:52:00,
2013-01-05 20:57:00,69.6,63.8,30.20,NE,45,2.6,4.4,82,0.00,,,0.00,WUHU216HW,2013-01-06 01:57:00,
2013-01-05 21:02:00,69.6,63.8,30.20,ENE,68,0.0,2.6,82,0.00,,,0.00,WUHU216HW,2013-01-06 02:02:00,
2013-01-05 21:07:00,69.4,63.6,30.20,ENE,68,1.1,2.9,82,0.00,,,0.00,WUHU216HW,2013-01-06 02:07:00,
2013-01-05 21:12:00,69.2,63.5,30.20,NE,45,2.4,4.6,82,0.00,,,0.00,WUHU216HW,2013-01-06 02:12:00,
2013-01-05 21:17:00,69.0,63.6,30.20,ENE,68,0.0,5.8,83,0.00,,,0.00,WUHU216HW,2013-01-06 02:17:00,
2013-01-05 21:22:00,69.0,63.6,30.20,ENE,68,0.8,5.8,83,0.00,,,0.00,WUHU216HW,2013-01-06 02:22:00,
2013-01-05 21:27:00,69.0,63.6,30.20,NE,45,3.8,3.8,83,0.00,,,0.00,WUHU216HW,2013-01-06 02:27:00,
2013-01-05 21:32:00,69.0,63.6,30.20,NE,45,2.0,4.2,83,0.00,,,0.00,WUHU216HW,2013-01-06 02:32:00,
2013-01-05 21:37:00,69.0,63.6,30.20,NE,45,4.4,4.4,83,0.00,,,0.00,WUHU216HW,2013-01-06 02:37:00,
2013-01-05 21:42:00,69.0,64.0,30.21,NE,45,1.7,4.4,84,0.00,,,0.00,WUHU216HW,2013-01-06 02:42:00,
2013-01-05 21:47:00,68.9,63.8,30.20,ENE,68,1.7,4.2,84,0.00,,,0.00,WUHU216HW,2013-01-06 02:47:00,
2013-01-05 21:52:00,68.9,63.8,30.21,ENE,68,0.8,4.9,84,0.00,,,0.00,WUHU216HW,2013-01-06 02:52:00,
2013-01-05 21:57:00,68.9,63.8,30.21,ENE,68,2.0,4.9,84,0.00,,,0.00,WUHU216HW,2013-01-06 02:57:00,
2013-01-05 22:02:00,68.9,63.8,30.21,NE,45,6.2,6.2,84,0.00,,,0.00,WUHU216HW,2013-01-06 03:02:00,
2013-01-05 22:07:00,68.9,63.8,30.21,NE,45,0.2,6.2,84,0.00,,,0.00,WUHU216HW,2013-01-06 03:07:00,
2013-01-05 22:12:00,68.9,63.8,30.20,NE,45,3.1,4.2,84,0.00,,,0.00,WUHU216HW,2013-01-06 03:12:00,
2013-01-05 22:17:00,68.7,63.6,30.20,NE,45,1.5,3.8,84,0.00,,,0.00,WUHU216HW,2013-01-06 03:17:00,
2013-01-05 22:22:00,68.7,63.6,30.20,NE,45,3.3,3.8,84,0.00,,,0.00,WUHU216HW,2013-01-06 03:22:00,
2013-01-05 22:27:00,68.7,63.6,30.19,ENE,68,4.0,4.0,84,0.00,,,0.00,WUHU216HW,2013-01-06 03:27:00,
2013-01-05 22:32:00,68.5,63.5,30.20,ENE,68,2.9,4.0,84,0.00,,,0.00,WUHU216HW,2013-01-06 03:32:00,
2013-01-05 22:37:00,68.3,63.3,30.19,ENE,68,2.4,3.5,84,0.00,,,0.00,WUHU216HW,2013-01-06 03:37:00,
2013-01-05 22:42:00,68.1,63.1,30.19,NE,45,1.5,2.9,84,0.00,,,0.00,WUHU216HW,2013-01-06 03:42:00,
2013-01-05 22:47:00,68.1,63.4,30.19,NE,45,0.0,3.3,85,0.00,,,0.00,WUHU216HW,2013-01-06 03:47:00,
2013-01-05 22:52:00,67.8,63.1,30.19,NE,45,2.9,3.3,85,0.00,,,0.00,WUHU216HW,2013-01-06 03:52:00,
2013-01-05 22:57:00,67.8,63.1,30.19,NE,45,1.7,2.9,85,0.00,,,0.00,WUHU216HW,2013-01-06 03:57:00,
2013-01-05 23:02:00,67.8,63.1,30.19,NE,45,1.3,2.9,85,0.00,,,0.00,WUHU216HW,2013-01-06 04:02:00,
2013-01-05 23:07:00,67.8,63.1,30.19,NE,45,0.6,3.3,85,0.00,,,0.00,WUHU216HW,2013-01-06 04:07:00,
2013-01-05 23:12:00,67.6,62.9,30.19,NE,45,2.2,3.3,85,0.00,,,0.00,WUHU216HW,2013-01-06 04:12:00,
2013-01-05 23:17:00,67.6,62.9,30.19,NE,45,0.0,2.2,85,0.00,,,0.00,WUHU216HW,2013-01-06 04:17:00,
2013-01-05 23:22:00,67.6,62.9,30.19,NE,45,0.4,2.2,85,0.00,,,0.00,WUHU216HW,2013-01-06 04:22:00,
2013-01-05 23:27:00,67.6,62.9,30.19,NE,45,0.4,2.2,85,0.00,,,0.00,WUHU216HW,2013-01-06 04:27:00,
2013-01-05 23:32:00,67.2,62.9,30.19,NE,45,1.1,2.2,86,0.00,,,0.00,WUHU216HW,2013-01-06 04:32:00,
2013-01-05 23:37:00,67.2,62.9,30.19,NE,45,1.3,2.0,86,0.00,,,0.00,WUHU216HW,2013-01-06 04:37:00,
2013-01-05 23:42:00,67.1,62.7,30.18,NE,45,0.0,1.3,86,0.00,,,0.00,WUHU216HW,2013-01-06 04:42:00,
2013-01-05 23:47:00,67.1,62.7,30.18,NE,45,0.0,1.1,86,0.00,,,0.00,WUHU216HW,2013-01-06 04:47:00,
2013-01-05 23:52:00,66.9,62.5,30.18,NE,45,0.0,0.0,86,0.00,,,0.00,WUHU216HW,2013-01-06 04:52:00,
2013-01-05 23:57:00,66.9,62.5,30.18,NE,45,0.0,0.0,86,0.00,,,0.00,WUHU216HW,2013-01-06 04:57:00,